sensor_id;sensor_type;location;lat;lon;timestamp;temperature;humidity
64685;DHT22;51109;47.414;18.954;2022-09-03T00:00:18;16.10;99.90
64685;DHT22;51109;47.414;18.954;2022-09-03T00:03:08;16.00;99.90
64685;DHT22;51109;47.414;18.954;2022-09-03T00:05:47;16.00;99.90
64685;DHT22;51109;47.414;18.954;2022-09-03T00:11:13;16.10;99.90
64685;DHT22;51109;47.414;18.954;2022-09-03T00:13:46;16.20;99.90
64685;DHT22;51109;47.414;18.954;2022-09-03T00:16:17;16.10;99.90
64685;DHT22;51109;47.414;18.954;2022-09-03T00:18:54;16.20;99.90
64685;DHT22;51109;47.414;18.954;2022-09-03T00:21:40;16.20;99.90
64685;DHT22;51109;47.414;18.954;2022-09-03T00:24:12;16.10;99.90
64685;DHT22;51109;47.414;18.954;2022-09-03T00:26:43;16.10;99.90
64685;DHT22;51109;47.414;18.954;2022-09-03T00:29:24;16.00;99.90
64685;DHT22;51109;47.414;18.954;2022-09-03T00:31:55;15.90;99.90
64685;DHT22;51109;47.414;18.954;2022-09-03T00:36:53;15.80;99.90
64685;DHT22;51109;47.414;18.954;2022-09-03T00:39:21;15.80;99.90
64685;DHT22;51109;47.414;18.954;2022-09-03T00:47:09;15.70;99.90
64685;DHT22;51109;47.414;18.954;2022-09-03T00:57:53;15.70;99.90
64685;DHT22;51109;47.414;18.954;2022-09-03T01:00:22;15.70;99.90
64685;DHT22;51109;47.414;18.954;2022-09-03T01:05:36;15.70;99.90
64685;DHT22;51109;47.414;18.954;2022-09-03T01:13:22;15.90;99.90
64685;DHT22;51109;47.414;18.954;2022-09-03T01:18:48;16.00;99.90
64685;DHT22;51109;47.414;18.954;2022-09-03T01:24:35;16.00;99.90
64685;DHT22;51109;47.414;18.954;2022-09-03T01:27:38;15.90;99.90
64685;DHT22;51109;47.414;18.954;2022-09-03T01:30:15;15.80;99.90
64685;DHT22;51109;47.414;18.954;2022-09-03T01:46:42;15.60;99.90
64685;DHT22;51109;47.414;18.954;2022-09-03T01:49:29;15.50;99.90
64685;DHT22;51109;47.414;18.954;2022-09-03T01:52:12;15.50;99.90
64685;DHT22;51109;47.414;18.954;2022-09-03T02:00:25;15.60;99.90
64685;DHT22;51109;47.414;18.954;2022-09-03T02:02:53;15.60;99.90
64685;DHT22;51109;47.414;18.954;2022-09-03T02:05:22;15.70;99.90
64685;DHT22;51109;47.414;18.954;2022-09-03T02:08:04;15.60;99.90
64685;DHT22;51109;47.414;18.954;2022-09-03T02:10:42;15.60;99.90
64685;DHT22;51109;47.414;18.954;2022-09-03T02:15:45;15.60;99.90
64685;DHT22;51109;47.414;18.954;2022-09-03T02:18:17;15.50;99.90
64685;DHT22;51109;47.414;18.954;2022-09-03T02:20:44;15.40;99.90
64685;DHT22;51109;47.414;18.954;2022-09-03T02:23:15;15.30;99.90
64685;DHT22;51109;47.414;18.954;2022-09-03T02:25:46;15.20;99.90
64685;DHT22;51109;47.414;18.954;2022-09-03T02:28:13;15.10;99.90
64685;DHT22;51109;47.414;18.954;2022-09-03T02:30:40;15.10;99.90
64685;DHT22;51109;47.414;18.954;2022-09-03T02:33:07;15.00;99.90
64685;DHT22;51109;47.414;18.954;2022-09-03T02:35:33;15.00;99.90
64685;DHT22;51109;47.414;18.954;2022-09-03T02:38:15;14.90;99.90
64685;DHT22;51109;47.414;18.954;2022-09-03T02:40:41;15.00;99.90
64685;DHT22;51109;47.414;18.954;2022-09-03T02:43:13;15.00;99.90
64685;DHT22;51109;47.414;18.954;2022-09-03T02:45:45;15.10;99.90
64685;DHT22;51109;47.414;18.954;2022-09-03T02:48:13;15.10;99.90
64685;DHT22;51109;47.414;18.954;2022-09-03T02:50:42;15.20;99.90
64685;DHT22;51109;47.414;18.954;2022-09-03T02:53:08;15.20;99.90
64685;DHT22;51109;47.414;18.954;2022-09-03T02:55:34;15.20;99.90
64685;DHT22;51109;47.414;18.954;2022-09-03T02:58:00;15.20;99.90
64685;DHT22;51109;47.414;18.954;2022-09-03T03:00:26;15.20;99.90
64685;DHT22;51109;47.414;18.954;2022-09-03T03:02:54;15.10;99.90
64685;DHT22;51109;47.414;18.954;2022-09-03T03:05:43;15.10;99.90
64685;DHT22;51109;47.414;18.954;2022-09-03T03:08:10;15.00;99.90
64685;DHT22;51109;47.414;18.954;2022-09-03T03:10:40;15.00;99.90
64685;DHT22;51109;47.414;18.954;2022-09-03T03:13:08;15.00;99.90
64685;DHT22;51109;47.414;18.954;2022-09-03T03:15:34;14.90;99.90
64685;DHT22;51109;47.414;18.954;2022-09-03T03:18:00;14.90;99.90
64685;DHT22;51109;47.414;18.954;2022-09-03T03:20:25;14.80;99.90
64685;DHT22;51109;47.414;18.954;2022-09-03T03:22:51;14.70;99.90
64685;DHT22;51109;47.414;18.954;2022-09-03T03:25:17;14.60;99.90
64685;DHT22;51109;47.414;18.954;2022-09-03T03:27:43;14.50;99.90
64685;DHT22;51109;47.414;18.954;2022-09-03T03:30:10;14.60;99.90
64685;DHT22;51109;47.414;18.954;2022-09-03T03:32:37;14.70;99.90
64685;DHT22;51109;47.414;18.954;2022-09-03T03:35:04;14.80;99.90
64685;DHT22;51109;47.414;18.954;2022-09-03T03:37:31;14.90;99.90
64685;DHT22;51109;47.414;18.954;2022-09-03T03:39:57;14.90;99.90
64685;DHT22;51109;47.414;18.954;2022-09-03T03:42:23;15.00;99.90
64685;DHT22;51109;47.414;18.954;2022-09-03T03:44:49;15.10;99.90
64685;DHT22;51109;47.414;18.954;2022-09-03T03:47:15;15.10;99.90
64685;DHT22;51109;47.414;18.954;2022-09-03T03:49:44;15.20;99.90
64685;DHT22;51109;47.414;18.954;2022-09-03T03:52:09;15.20;99.90
64685;DHT22;51109;47.414;18.954;2022-09-03T03:54:35;15.10;99.90
64685;DHT22;51109;47.414;18.954;2022-09-03T03:57:01;15.00;99.90
64685;DHT22;51109;47.414;18.954;2022-09-03T03:59:27;15.00;99.90
64685;DHT22;51109;47.414;18.954;2022-09-03T04:01:53;14.90;99.90
64685;DHT22;51109;47.414;18.954;2022-09-03T04:04:20;14.80;99.90
64685;DHT22;51109;47.414;18.954;2022-09-03T04:06:46;14.70;99.90
64685;DHT22;51109;47.414;18.954;2022-09-03T04:09:12;14.60;99.90
64685;DHT22;51109;47.414;18.954;2022-09-03T04:11:38;14.60;99.90
64685;DHT22;51109;47.414;18.954;2022-09-03T04:14:04;14.60;99.90
64685;DHT22;51109;47.414;18.954;2022-09-03T04:16:30;14.70;99.90
64685;DHT22;51109;47.414;18.954;2022-09-03T04:18:57;14.70;99.90
64685;DHT22;51109;47.414;18.954;2022-09-03T04:21:25;14.70;99.90
64685;DHT22;51109;47.414;18.954;2022-09-03T04:23:52;14.70;99.90
64685;DHT22;51109;47.414;18.954;2022-09-03T04:26:29;14.60;99.90
64685;DHT22;51109;47.414;18.954;2022-09-03T04:28:56;14.60;99.90
64685;DHT22;51109;47.414;18.954;2022-09-03T04:31:22;14.60;99.90
64685;DHT22;51109;47.414;18.954;2022-09-03T04:33:48;14.60;99.90
64685;DHT22;51109;47.414;18.954;2022-09-03T04:36:18;14.50;99.90
64685;DHT22;51109;47.414;18.954;2022-09-03T04:38:46;14.50;99.90
64685;DHT22;51109;47.414;18.954;2022-09-03T04:41:14;14.40;99.90
64685;DHT22;51109;47.414;18.954;2022-09-03T04:43:40;14.40;99.90
64685;DHT22;51109;47.414;18.954;2022-09-03T04:46:08;14.40;99.90
64685;DHT22;51109;47.414;18.954;2022-09-03T04:48:35;14.50;99.90
64685;DHT22;51109;47.414;18.954;2022-09-03T04:51:10;14.60;99.90
64685;DHT22;51109;47.414;18.954;2022-09-03T04:53:41;14.70;99.90
64685;DHT22;51109;47.414;18.954;2022-09-03T04:56:15;14.90;99.90
64685;DHT22;51109;47.414;18.954;2022-09-03T04:58:42;15.00;99.90
64685;DHT22;51109;47.414;18.954;2022-09-03T05:01:15;15.10;99.90
64685;DHT22;51109;47.414;18.954;2022-09-03T05:03:41;15.10;99.90
64685;DHT22;51109;47.414;18.954;2022-09-03T05:06:07;15.20;99.90
64685;DHT22;51109;47.414;18.954;2022-09-03T05:08:33;15.40;99.90
64685;DHT22;51109;47.414;18.954;2022-09-03T05:11:03;15.50;99.90
64685;DHT22;51109;47.414;18.954;2022-09-03T05:13:30;15.60;99.90
64685;DHT22;51109;47.414;18.954;2022-09-03T05:16:04;15.80;99.90
64685;DHT22;51109;47.414;18.954;2022-09-03T05:18:31;15.90;99.90
64685;DHT22;51109;47.414;18.954;2022-09-03T05:21:08;16.10;99.90
64685;DHT22;51109;47.414;18.954;2022-09-03T05:23:36;16.30;99.90
64685;DHT22;51109;47.414;18.954;2022-09-03T05:26:04;16.50;99.90
64685;DHT22;51109;47.414;18.954;2022-09-03T05:28:35;16.60;99.90
64685;DHT22;51109;47.414;18.954;2022-09-03T05:31:04;16.70;99.90
64685;DHT22;51109;47.414;18.954;2022-09-03T05:33:35;16.90;99.90
64685;DHT22;51109;47.414;18.954;2022-09-03T05:36:04;17.00;99.90
64685;DHT22;51109;47.414;18.954;2022-09-03T05:38:31;17.10;99.90
64685;DHT22;51109;47.414;18.954;2022-09-03T05:40:58;17.20;99.90
64685;DHT22;51109;47.414;18.954;2022-09-03T05:43:28;17.30;99.90
64685;DHT22;51109;47.414;18.954;2022-09-03T05:46:05;17.40;99.90
64685;DHT22;51109;47.414;18.954;2022-09-03T05:48:33;17.50;99.90
64685;DHT22;51109;47.414;18.954;2022-09-03T05:51:22;17.60;99.90
64685;DHT22;51109;47.414;18.954;2022-09-03T05:53:48;17.70;99.90
64685;DHT22;51109;47.414;18.954;2022-09-03T05:56:16;17.90;99.90
64685;DHT22;51109;47.414;18.954;2022-09-03T05:58:47;18.10;99.90
64685;DHT22;51109;47.414;18.954;2022-09-03T06:03:45;18.30;99.90
64685;DHT22;51109;47.414;18.954;2022-09-03T06:06:12;18.40;99.90
64685;DHT22;51109;47.414;18.954;2022-09-03T06:08:39;18.40;99.90
64685;DHT22;51109;47.414;18.954;2022-09-03T06:11:06;18.60;99.90
64685;DHT22;51109;47.414;18.954;2022-09-03T06:13:33;18.70;99.90
64685;DHT22;51109;47.414;18.954;2022-09-03T06:16:01;18.70;99.90
64685;DHT22;51109;47.414;18.954;2022-09-03T06:18:28;18.70;99.90
64685;DHT22;51109;47.414;18.954;2022-09-03T06:21:00;18.80;99.90
64685;DHT22;51109;47.414;18.954;2022-09-03T06:23:27;18.80;99.90
64685;DHT22;51109;47.414;18.954;2022-09-03T06:28:26;19.00;99.90
64685;DHT22;51109;47.414;18.954;2022-09-03T06:30:56;19.10;99.90
64685;DHT22;51109;47.414;18.954;2022-09-03T06:33:22;19.20;99.90
64685;DHT22;51109;47.414;18.954;2022-09-03T06:35:56;19.30;99.90
64685;DHT22;51109;47.414;18.954;2022-09-03T06:38:23;19.50;99.90
64685;DHT22;51109;47.414;18.954;2022-09-03T06:40:56;19.60;99.90
64685;DHT22;51109;47.414;18.954;2022-09-03T06:43:23;19.60;99.90
64685;DHT22;51109;47.414;18.954;2022-09-03T06:46:22;19.80;99.90
64685;DHT22;51109;47.414;18.954;2022-09-03T06:48:49;20.00;99.90
64685;DHT22;51109;47.414;18.954;2022-09-03T06:51:20;20.00;99.90
64685;DHT22;51109;47.414;18.954;2022-09-03T06:53:49;20.00;99.90
64685;DHT22;51109;47.414;18.954;2022-09-03T06:56:18;20.10;99.90
64685;DHT22;51109;47.414;18.954;2022-09-03T06:58:47;20.10;99.90
64685;DHT22;51109;47.414;18.954;2022-09-03T07:01:16;20.20;99.90
64685;DHT22;51109;47.414;18.954;2022-09-03T07:03:44;20.30;99.90
64685;DHT22;51109;47.414;18.954;2022-09-03T07:06:14;20.40;99.90
64685;DHT22;51109;47.414;18.954;2022-09-03T07:08:40;20.60;99.90
64685;DHT22;51109;47.414;18.954;2022-09-03T07:11:09;20.50;99.90
64685;DHT22;51109;47.414;18.954;2022-09-03T07:13:37;20.60;99.90
64685;DHT22;51109;47.414;18.954;2022-09-03T07:16:07;20.70;99.90
64685;DHT22;51109;47.414;18.954;2022-09-03T07:18:34;20.80;99.90
64685;DHT22;51109;47.414;18.954;2022-09-03T07:21:06;20.90;99.90
64685;DHT22;51109;47.414;18.954;2022-09-03T07:23:32;20.90;99.90
64685;DHT22;51109;47.414;18.954;2022-09-03T07:26:00;21.00;99.90
64685;DHT22;51109;47.414;18.954;2022-09-03T07:28:28;21.10;99.90
64685;DHT22;51109;47.414;18.954;2022-09-03T07:31:02;21.30;99.90
64685;DHT22;51109;47.414;18.954;2022-09-03T07:33:29;21.40;99.90
64685;DHT22;51109;47.414;18.954;2022-09-03T07:36:01;21.50;99.90
64685;DHT22;51109;47.414;18.954;2022-09-03T07:38:27;21.40;99.90
64685;DHT22;51109;47.414;18.954;2022-09-03T07:41:00;21.20;99.90
64685;DHT22;51109;47.414;18.954;2022-09-03T07:43:28;21.10;99.90
64685;DHT22;51109;47.414;18.954;2022-09-03T07:45:55;21.20;99.90
64685;DHT22;51109;47.414;18.954;2022-09-03T07:48:22;21.10;99.90
64685;DHT22;51109;47.414;18.954;2022-09-03T07:50:49;21.20;99.90
64685;DHT22;51109;47.414;18.954;2022-09-03T07:53:15;21.10;99.90
64685;DHT22;51109;47.414;18.954;2022-09-03T07:55:42;21.20;99.90
64685;DHT22;51109;47.414;18.954;2022-09-03T07:58:11;21.10;99.90
64685;DHT22;51109;47.414;18.954;2022-09-03T08:00:39;21.10;99.90
64685;DHT22;51109;47.414;18.954;2022-09-03T08:03:05;21.10;99.90
64685;DHT22;51109;47.414;18.954;2022-09-03T08:05:34;21.10;99.90
64685;DHT22;51109;47.414;18.954;2022-09-03T08:08:04;21.30;99.90
64685;DHT22;51109;47.414;18.954;2022-09-03T08:10:34;21.40;99.90
64685;DHT22;51109;47.414;18.954;2022-09-03T08:12:59;21.60;99.90
64685;DHT22;51109;47.414;18.954;2022-09-03T08:15:26;21.60;99.90
64685;DHT22;51109;47.414;18.954;2022-09-03T08:17:52;21.80;99.90
64685;DHT22;51109;47.414;18.954;2022-09-03T08:20:18;22.00;99.90
64685;DHT22;51109;47.414;18.954;2022-09-03T08:22:45;22.10;99.90
64685;DHT22;51109;47.414;18.954;2022-09-03T08:25:11;22.20;99.90
64685;DHT22;51109;47.414;18.954;2022-09-03T08:27:36;22.40;99.90
64685;DHT22;51109;47.414;18.954;2022-09-03T08:30:03;22.50;99.90
64685;DHT22;51109;47.414;18.954;2022-09-03T08:32:29;22.70;99.90
64685;DHT22;51109;47.414;18.954;2022-09-03T08:34:55;22.60;99.90
64685;DHT22;51109;47.414;18.954;2022-09-03T08:37:21;22.40;99.90
64685;DHT22;51109;47.414;18.954;2022-09-03T08:39:53;22.40;99.90
64685;DHT22;51109;47.414;18.954;2022-09-03T08:44:59;22.40;99.90
64685;DHT22;51109;47.414;18.954;2022-09-03T08:47:47;22.60;99.90
64685;DHT22;51109;47.414;18.954;2022-09-03T08:55:49;22.70;99.90
64685;DHT22;51109;47.414;18.954;2022-09-03T08:58:20;22.80;99.90
64685;DHT22;51109;47.414;18.954;2022-09-03T09:01:46;22.90;99.90
64685;DHT22;51109;47.414;18.954;2022-09-03T09:23:03;22.70;99.90
64685;DHT22;51109;47.414;18.954;2022-09-03T09:25:33;22.90;99.90
64685;DHT22;51109;47.414;18.954;2022-09-03T09:30:46;22.90;99.90
64685;DHT22;51109;47.414;18.954;2022-09-03T09:33:17;23.00;99.90
64685;DHT22;51109;47.414;18.954;2022-09-03T09:35:45;23.10;99.90
64685;DHT22;51109;47.414;18.954;2022-09-03T09:38:11;23.20;99.90
64685;DHT22;51109;47.414;18.954;2022-09-03T09:40:40;23.40;99.90
64685;DHT22;51109;47.414;18.954;2022-09-03T09:45:43;23.70;99.90
64685;DHT22;51109;47.414;18.954;2022-09-03T09:48:27;24.00;99.90
64685;DHT22;51109;47.414;18.954;2022-09-03T09:53:31;24.30;99.90
64685;DHT22;51109;47.414;18.954;2022-09-03T09:55:57;24.50;99.90
64685;DHT22;51109;47.414;18.954;2022-09-03T09:58:25;24.50;99.90
64685;DHT22;51109;47.414;18.954;2022-09-03T10:01:11;24.60;99.90
64685;DHT22;51109;47.414;18.954;2022-09-03T10:03:53;24.60;99.90
64685;DHT22;51109;47.414;18.954;2022-09-03T10:06:26;24.70;99.90
64685;DHT22;51109;47.414;18.954;2022-09-03T10:09:19;24.80;99.90
64685;DHT22;51109;47.414;18.954;2022-09-03T10:14:37;24.30;99.90
64685;DHT22;51109;47.414;18.954;2022-09-03T10:20:37;24.10;99.90
64685;DHT22;51109;47.414;18.954;2022-09-03T10:23:24;23.90;99.90
64685;DHT22;51109;47.414;18.954;2022-09-03T10:26:22;24.00;99.90
64685;DHT22;51109;47.414;18.954;2022-09-03T10:29:00;24.10;99.90
64685;DHT22;51109;47.414;18.954;2022-09-03T10:37:41;24.60;99.90
64685;DHT22;51109;47.414;18.954;2022-09-03T10:40:11;24.70;99.90
64685;DHT22;51109;47.414;18.954;2022-09-03T10:45:19;24.90;99.90
64685;DHT22;51109;47.414;18.954;2022-09-03T10:54:09;24.80;99.90
64685;DHT22;51109;47.414;18.954;2022-09-03T10:59:14;24.90;99.90
64685;DHT22;51109;47.414;18.954;2022-09-03T11:02:15;25.10;99.90
64685;DHT22;51109;47.414;18.954;2022-09-03T11:07:27;25.50;99.90
64685;DHT22;51109;47.414;18.954;2022-09-03T11:10:11;25.60;99.90
64685;DHT22;51109;47.414;18.954;2022-09-03T11:12:43;25.50;99.90
64685;DHT22;51109;47.414;18.954;2022-09-03T11:15:40;25.50;99.90
64685;DHT22;51109;47.414;18.954;2022-09-03T11:18:28;25.60;99.90
64685;DHT22;51109;47.414;18.954;2022-09-03T11:20:58;25.60;99.90
64685;DHT22;51109;47.414;18.954;2022-09-03T11:23:27;25.70;99.90
64685;DHT22;51109;47.414;18.954;2022-09-03T11:25:57;25.80;99.90
64685;DHT22;51109;47.414;18.954;2022-09-03T11:28:45;25.90;99.90
64685;DHT22;51109;47.414;18.954;2022-09-03T11:31:23;25.90;99.90
64685;DHT22;51109;47.414;18.954;2022-09-03T11:33:59;25.90;99.90
64685;DHT22;51109;47.414;18.954;2022-09-03T11:36:36;26.00;99.90
64685;DHT22;51109;47.414;18.954;2022-09-03T11:39:25;26.10;99.90
64685;DHT22;51109;47.414;18.954;2022-09-03T11:41:59;26.10;99.90
64685;DHT22;51109;47.414;18.954;2022-09-03T11:44:35;26.00;99.90
64685;DHT22;51109;47.414;18.954;2022-09-03T11:47:13;26.10;99.90
64685;DHT22;51109;47.414;18.954;2022-09-03T11:49:46;26.10;99.90
64685;DHT22;51109;47.414;18.954;2022-09-03T11:52:12;26.20;99.90
64685;DHT22;51109;47.414;18.954;2022-09-03T11:54:45;26.30;99.90
64685;DHT22;51109;47.414;18.954;2022-09-03T11:57:30;26.40;99.90
64685;DHT22;51109;47.414;18.954;2022-09-03T12:00:11;26.40;99.90
64685;DHT22;51109;47.414;18.954;2022-09-03T12:02:43;26.40;99.90
64685;DHT22;51109;47.414;18.954;2022-09-03T12:13:57;26.30;99.90
64685;DHT22;51109;47.414;18.954;2022-09-03T12:19:03;26.50;99.90
64685;DHT22;51109;47.414;18.954;2022-09-03T12:21:37;26.60;99.90
64685;DHT22;51109;47.414;18.954;2022-09-03T12:24:03;26.40;99.90
64685;DHT22;51109;47.414;18.954;2022-09-03T12:26:29;26.20;99.90
64685;DHT22;51109;47.414;18.954;2022-09-03T12:28:57;26.20;99.90
64685;DHT22;51109;47.414;18.954;2022-09-03T12:31:28;26.20;99.90
64685;DHT22;51109;47.414;18.954;2022-09-03T12:33:58;26.40;99.90
64685;DHT22;51109;47.414;18.954;2022-09-03T12:36:35;26.40;99.90
64685;DHT22;51109;47.414;18.954;2022-09-03T12:44:38;25.90;99.90
64685;DHT22;51109;47.414;18.954;2022-09-03T12:49:39;25.50;99.90
64685;DHT22;51109;47.414;18.954;2022-09-03T12:52:35;25.30;99.90
64685;DHT22;51109;47.414;18.954;2022-09-03T12:57:44;25.10;99.90
64685;DHT22;51109;47.414;18.954;2022-09-03T13:00:15;25.00;99.90
64685;DHT22;51109;47.414;18.954;2022-09-03T13:03:11;24.90;99.90
64685;DHT22;51109;47.414;18.954;2022-09-03T13:05:44;25.00;99.90
64685;DHT22;51109;47.414;18.954;2022-09-03T13:08:40;25.20;99.90
64685;DHT22;51109;47.414;18.954;2022-09-03T13:11:09;25.30;99.90
64685;DHT22;51109;47.414;18.954;2022-09-03T13:13:36;25.40;99.90
64685;DHT22;51109;47.414;18.954;2022-09-03T13:37:22;25.50;99.90
64685;DHT22;51109;47.414;18.954;2022-09-03T13:40:08;25.20;99.90
64685;DHT22;51109;47.414;18.954;2022-09-03T13:42:42;25.10;99.90
64685;DHT22;51109;47.414;18.954;2022-09-03T13:48:16;25.20;99.90
64685;DHT22;51109;47.414;18.954;2022-09-03T13:56:50;25.20;99.90
64685;DHT22;51109;47.414;18.954;2022-09-03T13:59:39;25.20;99.90
64685;DHT22;51109;47.414;18.954;2022-09-03T14:13:21;25.20;99.90
64685;DHT22;51109;47.414;18.954;2022-09-03T14:18:51;25.10;99.90
64685;DHT22;51109;47.414;18.954;2022-09-03T14:21:23;24.90;99.90
64685;DHT22;51109;47.414;18.954;2022-09-03T14:26:50;24.80;99.90
64685;DHT22;51109;47.414;18.954;2022-09-03T14:29:22;24.80;99.90
64685;DHT22;51109;47.414;18.954;2022-09-03T14:32:11;24.80;99.90
64685;DHT22;51109;47.414;18.954;2022-09-03T14:38:03;25.10;99.90
64685;DHT22;51109;47.414;18.954;2022-09-03T14:40:43;25.20;99.90
64685;DHT22;51109;47.414;18.954;2022-09-03T14:57:34;25.20;99.90
64685;DHT22;51109;47.414;18.954;2022-09-03T15:11:16;25.40;99.90
64685;DHT22;51109;47.414;18.954;2022-09-03T15:14:09;25.30;99.90
64685;DHT22;51109;47.414;18.954;2022-09-03T15:16:51;25.40;99.90
64685;DHT22;51109;47.414;18.954;2022-09-03T15:30:59;25.20;99.90
64685;DHT22;51109;47.414;18.954;2022-09-03T15:33:34;25.20;99.90
64685;DHT22;51109;47.414;18.954;2022-09-03T15:41:36;25.10;99.90
64685;DHT22;51109;47.414;18.954;2022-09-03T15:44:10;25.10;99.90
64685;DHT22;51109;47.414;18.954;2022-09-03T15:46:48;25.10;99.90
64685;DHT22;51109;47.414;18.954;2022-09-03T15:49:53;25.10;99.90
64685;DHT22;51109;47.414;18.954;2022-09-03T15:55:30;25.10;99.90
64685;DHT22;51109;47.414;18.954;2022-09-03T16:00:50;25.10;99.90
64685;DHT22;51109;47.414;18.954;2022-09-03T16:03:47;25.10;99.90
64685;DHT22;51109;47.414;18.954;2022-09-03T16:06:27;25.10;99.90
64685;DHT22;51109;47.414;18.954;2022-09-03T16:14:30;24.90;99.90
64685;DHT22;51109;47.414;18.954;2022-09-03T16:20:03;24.90;99.90
64685;DHT22;51109;47.414;18.954;2022-09-03T16:22:44;24.80;99.90
64685;DHT22;51109;47.414;18.954;2022-09-03T16:25:16;24.80;99.90
64685;DHT22;51109;47.414;18.954;2022-09-03T16:27:59;24.70;99.90
64685;DHT22;51109;47.414;18.954;2022-09-03T16:33:37;24.50;99.90
64685;DHT22;51109;47.414;18.954;2022-09-03T16:36:27;24.50;99.90
64685;DHT22;51109;47.414;18.954;2022-09-03T16:51:09;24.10;99.90
64685;DHT22;51109;47.414;18.954;2022-09-03T16:56:37;24.00;99.90
64685;DHT22;51109;47.414;18.954;2022-09-03T17:00:07;24.00;99.90
64685;DHT22;51109;47.414;18.954;2022-09-03T17:05:17;23.90;99.90
64685;DHT22;51109;47.414;18.954;2022-09-03T17:15:51;23.30;99.90
64685;DHT22;51109;47.414;18.954;2022-09-03T17:21:08;23.00;99.90
64685;DHT22;51109;47.414;18.954;2022-09-03T17:26:10;22.60;99.90
64685;DHT22;51109;47.414;18.954;2022-09-03T17:34:46;22.00;99.90
64685;DHT22;51109;47.414;18.954;2022-09-03T17:49:28;21.50;99.90
64685;DHT22;51109;47.414;18.954;2022-09-03T17:52:29;21.40;99.90
64685;DHT22;51109;47.414;18.954;2022-09-03T17:55:41;21.30;99.90
64685;DHT22;51109;47.414;18.954;2022-09-03T17:58:33;21.20;99.90
64685;DHT22;51109;47.414;18.954;2022-09-03T18:08:57;21.00;99.90
64685;DHT22;51109;47.414;18.954;2022-09-03T18:11:48;20.90;99.90
64685;DHT22;51109;47.414;18.954;2022-09-03T18:14:33;20.80;99.90
64685;DHT22;51109;47.414;18.954;2022-09-03T18:17:10;20.80;99.90
64685;DHT22;51109;47.414;18.954;2022-09-03T18:19:40;20.80;99.90
64685;DHT22;51109;47.414;18.954;2022-09-03T18:22:34;20.70;99.90
64685;DHT22;51109;47.414;18.954;2022-09-03T18:25:24;20.70;99.90
64685;DHT22;51109;47.414;18.954;2022-09-03T18:28:14;20.70;99.90
64685;DHT22;51109;47.414;18.954;2022-09-03T18:31:01;20.60;99.90
64685;DHT22;51109;47.414;18.954;2022-09-03T18:33:45;20.60;99.90
64685;DHT22;51109;47.414;18.954;2022-09-03T18:36:31;20.50;99.90
64685;DHT22;51109;47.414;18.954;2022-09-03T18:39:43;20.50;99.90
64685;DHT22;51109;47.414;18.954;2022-09-03T18:43:01;20.40;99.90
64685;DHT22;51109;47.414;18.954;2022-09-03T18:45:55;20.40;99.90
64685;DHT22;51109;47.414;18.954;2022-09-03T18:52:28;20.20;99.90
64685;DHT22;51109;47.414;18.954;2022-09-03T18:55:22;20.10;99.90
64685;DHT22;51109;47.414;18.954;2022-09-03T19:01:07;20.10;99.90
64685;DHT22;51109;47.414;18.954;2022-09-03T19:04:06;20.10;99.90
64685;DHT22;51109;47.414;18.954;2022-09-03T19:09:55;20.00;99.90
64685;DHT22;51109;47.414;18.954;2022-09-03T19:15:50;20.00;99.90
64685;DHT22;51109;47.414;18.954;2022-09-03T19:24:29;20.00;99.90
64685;DHT22;51109;47.414;18.954;2022-09-03T19:27:30;20.00;99.90
64685;DHT22;51109;47.414;18.954;2022-09-03T19:46:42;19.60;99.90
64685;DHT22;51109;47.414;18.954;2022-09-03T19:52:59;19.50;99.90
64685;DHT22;51109;47.414;18.954;2022-09-03T19:55:51;19.50;99.90
64685;DHT22;51109;47.414;18.954;2022-09-03T19:58:40;19.50;99.90
64685;DHT22;51109;47.414;18.954;2022-09-03T20:01:35;19.50;99.90
64685;DHT22;51109;47.414;18.954;2022-09-03T20:04:24;19.50;99.90
64685;DHT22;51109;47.414;18.954;2022-09-03T20:07:10;19.50;99.90
64685;DHT22;51109;47.414;18.954;2022-09-03T20:09:57;19.60;99.90
64685;DHT22;51109;47.414;18.954;2022-09-03T20:12:51;19.50;99.90
64685;DHT22;51109;47.414;18.954;2022-09-03T20:15:18;19.50;99.90
64685;DHT22;51109;47.414;18.954;2022-09-03T20:18:09;19.50;99.90
64685;DHT22;51109;47.414;18.954;2022-09-03T20:21:04;19.60;99.90
64685;DHT22;51109;47.414;18.954;2022-09-03T20:23:37;19.60;99.90
64685;DHT22;51109;47.414;18.954;2022-09-03T20:29:02;19.60;99.90
64685;DHT22;51109;47.414;18.954;2022-09-03T20:45:33;19.20;99.90
64685;DHT22;51109;47.414;18.954;2022-09-03T20:51:08;19.20;99.90
64685;DHT22;51109;47.414;18.954;2022-09-03T20:56:29;19.20;99.90
64685;DHT22;51109;47.414;18.954;2022-09-03T20:59:06;19.20;99.90
64685;DHT22;51109;47.414;18.954;2022-09-03T21:10:07;19.10;99.90
64685;DHT22;51109;47.414;18.954;2022-09-03T21:12:48;19.10;99.90
64685;DHT22;51109;47.414;18.954;2022-09-03T21:15:39;19.00;99.90
64685;DHT22;51109;47.414;18.954;2022-09-03T21:26:54;18.80;99.90
64685;DHT22;51109;47.414;18.954;2022-09-03T21:29:25;18.70;99.90
64685;DHT22;51109;47.414;18.954;2022-09-03T21:32:19;18.80;99.90
64685;DHT22;51109;47.414;18.954;2022-09-03T21:37:49;18.60;99.90
64685;DHT22;51109;47.414;18.954;2022-09-03T21:40:16;18.60;99.90
64685;DHT22;51109;47.414;18.954;2022-09-03T21:42:48;18.30;99.90
64685;DHT22;51109;47.414;18.954;2022-09-03T21:51:19;18.10;99.90
64685;DHT22;51109;47.414;18.954;2022-09-03T22:04:33;18.30;99.90
64685;DHT22;51109;47.414;18.954;2022-09-03T22:07:11;18.40;99.90
64685;DHT22;51109;47.414;18.954;2022-09-03T22:10:14;18.50;99.90
64685;DHT22;51109;47.414;18.954;2022-09-03T22:15:20;18.30;99.90
64685;DHT22;51109;47.414;18.954;2022-09-03T22:20:20;18.30;99.90
64685;DHT22;51109;47.414;18.954;2022-09-03T22:25:27;18.20;99.90
64685;DHT22;51109;47.414;18.954;2022-09-03T22:28:44;18.10;99.90
64685;DHT22;51109;47.414;18.954;2022-09-03T22:31:20;18.00;99.90
64685;DHT22;51109;47.414;18.954;2022-09-03T22:33:50;18.10;99.90
64685;DHT22;51109;47.414;18.954;2022-09-03T22:50:06;18.10;99.90
64685;DHT22;51109;47.414;18.954;2022-09-03T22:55:27;18.10;99.90
64685;DHT22;51109;47.414;18.954;2022-09-03T22:58:04;18.10;99.90
64685;DHT22;51109;47.414;18.954;2022-09-03T23:00:39;18.10;99.90
64685;DHT22;51109;47.414;18.954;2022-09-03T23:03:13;18.10;99.90
64685;DHT22;51109;47.414;18.954;2022-09-03T23:05:59;18.10;99.90
64685;DHT22;51109;47.414;18.954;2022-09-03T23:08:31;18.10;99.90
64685;DHT22;51109;47.414;18.954;2022-09-03T23:13:39;18.00;99.90
64685;DHT22;51109;47.414;18.954;2022-09-03T23:18:55;18.00;99.90